Fosston, Minnesota
Current Conditions -  °F | °C
As of 8:15 AM on Thursday 29 Jan 2015 (Local Time) from KFSE Reporting Station
Light Snow Light Snow  
Wind Chill: -6°   Ceiling: 1400
Heat Index: 10°   Visibility: 5mi
Dew Point:   Wind: 15mph
Humidity: 85%   Direction: 310°NW
Pressure: 30.3"   Gusts: 22mph
Location:  47.58°N, 95.75°W
Report Text: KFSE 291415Z AUTO 31013G19KT 5SM -SN OVC014 M12/M14 A3030 RMK AO2
Loading
Personal Weather Stations






























Interactive Weather Map New forecast layout! Learn more

10-Day Weather Forecast

Advertisements
Track Severe Weather on mobile